sensor_id;sensor_type;location;lat;lon;timestamp;pressure;altitude;pressure_sealevel;temperature;humidity
50125;BME280;36023;48.670;6.184;2022-07-23T00:01:30;99071.59;;;26.63;43.15
50125;BME280;36023;48.670;6.184;2022-07-23T00:03:56;99065.47;;;26.63;43.46
50125;BME280;36023;48.670;6.184;2022-07-23T00:06:23;99052.72;;;26.66;43.28
50125;BME280;36023;48.670;6.184;2022-07-23T00:08:48;99051.50;;;26.71;43.43
50125;BME280;36023;48.670;6.184;2022-07-23T00:11:14;99041.72;;;26.71;43.16
50125;BME280;36023;48.670;6.184;2022-07-23T00:13:41;99037.25;;;26.72;43.36
50125;BME280;36023;48.670;6.184;2022-07-23T00:16:07;99036.41;;;26.71;43.21
50125;BME280;36023;48.670;6.184;2022-07-23T00:18:34;99028.56;;;26.70;43.17
50125;BME280;36023;48.670;6.184;2022-07-23T00:20:59;99032.31;;;26.67;43.21
50125;BME280;36023;48.670;6.184;2022-07-23T00:23:25;99036.09;;;26.64;43.36
50125;BME280;36023;48.670;6.184;2022-07-23T00:25:52;99035.25;;;26.64;43.43
50125;BME280;36023;48.670;6.184;2022-07-23T00:28:18;99027.97;;;26.66;43.28
50125;BME280;36023;48.670;6.184;2022-07-23T00:30:44;99027.97;;;26.66;43.46
50125;BME280;36023;48.670;6.184;2022-07-23T00:33:10;99024.78;;;26.62;43.35
50125;BME280;36023;48.670;6.184;2022-07-23T00:35:39;99027.44;;;26.62;43.45
50125;BME280;36023;48.670;6.184;2022-07-23T00:38:07;99026.13;;;26.57;43.46
50125;BME280;36023;48.670;6.184;2022-07-23T00:40:33;99038.81;;;26.53;43.83
50125;BME280;36023;48.670;6.184;2022-07-23T00:42:59;99045.84;;;26.54;43.89
50125;BME280;36023;48.670;6.184;2022-07-23T00:45:26;99068.78;;;26.55;44.04
50125;BME280;36023;48.670;6.184;2022-07-23T00:47:52;99078.00;;;26.61;44.06
50125;BME280;36023;48.670;6.184;2022-07-23T00:50:18;99075.53;;;26.69;43.93
50125;BME280;36023;48.670;6.184;2022-07-23T00:52:44;99056.41;;;26.75;43.68
50125;BME280;36023;48.670;6.184;2022-07-23T00:55:11;99050.69;;;26.80;43.69
50125;BME280;36023;48.670;6.184;2022-07-23T00:57:38;99037.28;;;26.81;43.74
50125;BME280;36023;48.670;6.184;2022-07-23T01:00:06;99036.72;;;26.78;43.83
50125;BME280;36023;48.670;6.184;2022-07-23T01:02:32;99041.19;;;26.77;43.89
50125;BME280;36023;48.670;6.184;2022-07-23T01:04:59;99035.88;;;26.77;43.80
50125;BME280;36023;48.670;6.184;2022-07-23T01:07:24;99030.25;;;26.71;43.81
50125;BME280;36023;48.670;6.184;2022-07-23T01:09:54;99030.50;;;26.67;44.10
50125;BME280;36023;48.670;6.184;2022-07-23T01:12:20;99032.47;;;26.65;44.03
50125;BME280;36023;48.670;6.184;2022-07-23T01:14:57;99030.78;;;26.64;44.29
50125;BME280;36023;48.670;6.184;2022-07-23T01:17:23;99015.13;;;26.61;44.24
50125;BME280;36023;48.670;6.184;2022-07-23T01:19:50;99001.09;;;26.59;44.31
50125;BME280;36023;48.670;6.184;2022-07-23T01:22:19;99011.03;;;26.57;44.29
50125;BME280;36023;48.670;6.184;2022-07-23T01:24:45;99011.31;;;26.54;44.44
50125;BME280;36023;48.670;6.184;2022-07-23T01:27:11;99022.88;;;26.53;44.66
50125;BME280;36023;48.670;6.184;2022-07-23T01:29:39;99020.38;;;26.52;44.72
50125;BME280;36023;48.670;6.184;2022-07-23T01:32:10;99025.69;;;26.52;44.89
50125;BME280;36023;48.670;6.184;2022-07-23T01:34:35;99027.25;;;26.54;44.88
50125;BME280;36023;48.670;6.184;2022-07-23T01:37:01;99025.28;;;26.56;44.92
50125;BME280;36023;48.670;6.184;2022-07-23T01:39:27;99031.06;;;26.61;44.81
50125;BME280;36023;48.670;6.184;2022-07-23T01:41:53;99032.00;;;26.60;44.85
50125;BME280;36023;48.670;6.184;2022-07-23T01:44:20;99035.25;;;26.64;44.89
50125;BME280;36023;48.670;6.184;2022-07-23T01:46:47;99039.72;;;26.63;44.97
50125;BME280;36023;48.670;6.184;2022-07-23T01:49:14;99036.94;;;26.65;45.09
50125;BME280;36023;48.670;6.184;2022-07-23T01:52:07;99036.09;;;26.64;45.15
50125;BME280;36023;48.670;6.184;2022-07-23T01:54:42;99033.56;;;26.63;45.02
50125;BME280;36023;48.670;6.184;2022-07-23T01:57:09;99028.25;;;26.63;45.02
50125;BME280;36023;48.670;6.184;2022-07-23T01:59:34;99022.13;;;26.62;45.03
50125;BME280;36023;48.670;6.184;2022-07-23T02:02:00;99022.50;;;26.58;45.10
50125;BME280;36023;48.670;6.184;2022-07-23T02:04:27;99025.28;;;26.56;45.33
50125;BME280;36023;48.670;6.184;2022-07-23T02:06:54;99033.25;;;26.56;45.21
50125;BME280;36023;48.670;6.184;2022-07-23T02:09:21;99039.69;;;26.54;45.30
50125;BME280;36023;48.670;6.184;2022-07-23T02:11:47;99044.28;;;26.52;45.33
50125;BME280;36023;48.670;6.184;2022-07-23T02:14:12;99051.69;;;26.48;45.47
50125;BME280;36023;48.670;6.184;2022-07-23T02:16:39;99062.44;;;26.47;45.37
50125;BME280;36023;48.670;6.184;2022-07-23T02:19:06;99067.84;;;26.45;45.53
50125;BME280;36023;48.670;6.184;2022-07-23T02:21:32;99049.16;;;26.47;45.59
50125;BME280;36023;48.670;6.184;2022-07-23T02:23:57;99026.09;;;26.47;45.34
50125;BME280;36023;48.670;6.184;2022-07-23T02:26:23;99031.66;;;26.44;45.54
50125;BME280;36023;48.670;6.184;2022-07-23T02:28:51;99026.63;;;26.41;45.58
50125;BME280;36023;48.670;6.184;2022-07-23T02:31:18;99031.22;;;26.39;45.68
50125;BME280;36023;48.670;6.184;2022-07-23T02:33:44;99026.75;;;26.40;45.97
50125;BME280;36023;48.670;6.184;2022-07-23T02:36:10;99025.66;;;26.42;46.13
50125;BME280;36023;48.670;6.184;2022-07-23T02:38:36;99023.97;;;26.41;45.92
50125;BME280;36023;48.670;6.184;2022-07-23T02:41:02;99018.66;;;26.41;45.90
50125;BME280;36023;48.670;6.184;2022-07-23T02:43:28;99014.47;;;26.38;45.96
50125;BME280;36023;48.670;6.184;2022-07-23T02:45:54;99006.50;;;26.38;46.38
50125;BME280;36023;48.670;6.184;2022-07-23T02:48:20;99007.34;;;26.39;46.27
50125;BME280;36023;48.670;6.184;2022-07-23T02:50:48;99013.00;;;26.34;46.15
50125;BME280;36023;48.670;6.184;2022-07-23T02:53:18;99019.41;;;26.32;46.31
50125;BME280;36023;48.670;6.184;2022-07-23T02:55:44;99016.91;;;26.30;46.70
50125;BME280;36023;48.670;6.184;2022-07-23T02:58:10;99028.38;;;26.31;46.55
50125;BME280;36023;48.670;6.184;2022-07-23T03:00:36;99029.19;;;26.31;46.63
50125;BME280;36023;48.670;6.184;2022-07-23T03:03:01;99027.25;;;26.33;46.71
50125;BME280;36023;48.670;6.184;2022-07-23T03:05:28;99026.41;;;26.33;46.58
50125;BME280;36023;48.670;6.184;2022-07-23T03:07:53;99019.41;;;26.32;46.80
50125;BME280;36023;48.670;6.184;2022-07-23T03:10:19;99019.56;;;26.30;46.83
50125;BME280;36023;48.670;6.184;2022-07-23T03:12:45;99020.25;;;26.32;46.91
50125;BME280;36023;48.670;6.184;2022-07-23T03:15:11;99019.41;;;26.32;46.69
50125;BME280;36023;48.670;6.184;2022-07-23T03:17:40;99032.94;;;26.29;46.80
50125;BME280;36023;48.670;6.184;2022-07-23T03:20:06;99023.28;;;26.28;46.77
50125;BME280;36023;48.670;6.184;2022-07-23T03:22:32;99028.59;;;26.28;46.88
50125;BME280;36023;48.670;6.184;2022-07-23T03:24:58;99024.28;;;26.27;47.07
50125;BME280;36023;48.670;6.184;2022-07-23T03:27:29;99017.97;;;26.28;46.92
50125;BME280;36023;48.670;6.184;2022-07-23T03:29:57;99016.44;;;26.25;46.83
50125;BME280;36023;48.670;6.184;2022-07-23T03:32:24;99013.34;;;26.20;46.54
50125;BME280;36023;48.670;6.184;2022-07-23T03:34:50;99009.28;;;26.16;46.79
50125;BME280;36023;48.670;6.184;2022-07-23T03:37:17;99013.75;;;26.16;46.86
50125;BME280;36023;48.670;6.184;2022-07-23T03:39:46;99014.69;;;26.15;47.02
50125;BME280;36023;48.670;6.184;2022-07-23T03:42:12;99015.94;;;26.10;46.92
50125;BME280;36023;48.670;6.184;2022-07-23T03:44:38;99016.91;;;26.09;47.18
50125;BME280;36023;48.670;6.184;2022-07-23T03:47:06;99015.09;;;26.10;46.92
50125;BME280;36023;48.670;6.184;2022-07-23T03:49:32;99026.00;;;26.07;46.88
50125;BME280;36023;48.670;6.184;2022-07-23T03:51:58;99019.09;;;26.04;46.99
50125;BME280;36023;48.670;6.184;2022-07-23T03:54:24;99021.75;;;26.04;47.05
50125;BME280;36023;48.670;6.184;2022-07-23T03:56:50;99032.25;;;26.06;47.37
50125;BME280;36023;48.670;6.184;2022-07-23T03:59:15;99032.97;;;26.08;47.19
50125;BME280;36023;48.670;6.184;2022-07-23T04:01:41;99039.13;;;26.08;47.12
50125;BME280;36023;48.670;6.184;2022-07-23T04:04:07;99045.41;;;26.07;47.01
50125;BME280;36023;48.670;6.184;2022-07-23T04:06:36;99043.69;;;26.06;46.91
50125;BME280;36023;48.670;6.184;2022-07-23T04:09:02;99037.81;;;26.03;47.16
50125;BME280;36023;48.670;6.184;2022-07-23T04:11:31;99053.88;;;26.01;47.05
50125;BME280;36023;48.670;6.184;2022-07-23T04:13:58;99047.00;;;25.99;47.17
50125;BME280;36023;48.670;6.184;2022-07-23T04:16:23;99061.97;;;26.00;47.46
50125;BME280;36023;48.670;6.184;2022-07-23T04:18:49;99053.03;;;26.01;47.47
50125;BME280;36023;48.670;6.184;2022-07-23T04:21:19;99066.31;;;26.01;47.48
50125;BME280;36023;48.670;6.184;2022-07-23T04:23:46;99066.19;;;26.02;47.25
50125;BME280;36023;48.670;6.184;2022-07-23T04:26:12;99060.88;;;26.02;47.41
50125;BME280;36023;48.670;6.184;2022-07-23T04:28:39;99068.69;;;26.04;47.28
50125;BME280;36023;48.670;6.184;2022-07-23T04:31:04;99076.78;;;26.02;47.46
50125;BME280;36023;48.670;6.184;2022-07-23T04:33:31;99074.84;;;26.04;47.43
50125;BME280;36023;48.670;6.184;2022-07-23T04:35:59;99087.97;;;26.06;47.56
50125;BME280;36023;48.670;6.184;2022-07-23T04:38:24;99087.97;;;26.06;47.39
50125;BME280;36023;48.670;6.184;2022-07-23T04:40:54;99099.44;;;26.06;47.47
50125;BME280;36023;48.670;6.184;2022-07-23T04:43:20;99099.44;;;26.06;47.55
50125;BME280;36023;48.670;6.184;2022-07-23T04:45:48;99099.44;;;26.06;47.58
50125;BME280;36023;48.670;6.184;2022-07-23T04:48:14;99103.78;;;26.07;47.67
50125;BME280;36023;48.670;6.184;2022-07-23T04:50:41;99114.53;;;26.06;47.68
50125;BME280;36023;48.670;6.184;2022-07-23T04:53:14;99115.50;;;26.05;47.65
50125;BME280;36023;48.670;6.184;2022-07-23T04:55:41;99118.00;;;26.06;47.93
50125;BME280;36023;48.670;6.184;2022-07-23T04:58:07;99122.81;;;26.13;47.81
50125;BME280;36023;48.670;6.184;2022-07-23T05:00:32;99133.91;;;26.18;47.66
50125;BME280;36023;48.670;6.184;2022-07-23T05:02:58;99122.88;;;26.22;47.63
50125;BME280;36023;48.670;6.184;2022-07-23T05:05:24;99119.16;;;26.25;47.76
50125;BME280;36023;48.670;6.184;2022-07-23T05:07:52;99121.81;;;26.25;47.57
50125;BME280;36023;48.670;6.184;2022-07-23T05:10:18;99120.00;;;26.25;47.71
50125;BME280;36023;48.670;6.184;2022-07-23T05:12:43;99131.91;;;26.31;47.61
50125;BME280;36023;48.670;6.184;2022-07-23T05:15:09;99127.53;;;26.30;47.73
50125;BME280;36023;48.670;6.184;2022-07-23T05:17:35;99126.72;;;26.29;47.80
50125;BME280;36023;48.670;6.184;2022-07-23T05:20:04;99127.31;;;26.33;47.68
50125;BME280;36023;48.670;6.184;2022-07-23T05:22:30;99126.19;;;26.35;47.69
50125;BME280;36023;48.670;6.184;2022-07-23T05:24:56;99130.94;;;26.32;47.75
50125;BME280;36023;48.670;6.184;2022-07-23T05:27:22;99130.09;;;26.31;47.88
50125;BME280;36023;48.670;6.184;2022-07-23T05:29:47;99127.44;;;26.31;48.08
50125;BME280;36023;48.670;6.184;2022-07-23T05:32:13;99139.03;;;26.30;47.93
50125;BME280;36023;48.670;6.184;2022-07-23T05:34:46;99137.94;;;26.33;47.97
50125;BME280;36023;48.670;6.184;2022-07-23T05:37:11;99142.25;;;26.34;47.88
50125;BME280;36023;48.670;6.184;2022-07-23T05:39:37;99142.41;;;26.32;47.87
50125;BME280;36023;48.670;6.184;2022-07-23T05:42:03;99147.84;;;26.31;48.05
50125;BME280;36023;48.670;6.184;2022-07-23T05:44:29;99152.19;;;26.32;48.15
50125;BME280;36023;48.670;6.184;2022-07-23T05:47:00;99159.75;;;26.36;48.05
50125;BME280;36023;48.670;6.184;2022-07-23T05:49:28;99163.16;;;26.38;48.01
50125;BME280;36023;48.670;6.184;2022-07-23T05:52:04;99163.03;;;26.40;48.05
50125;BME280;36023;48.670;6.184;2022-07-23T05:54:43;99174.38;;;26.42;47.85
50125;BME280;36023;48.670;6.184;2022-07-23T05:57:09;99163.88;;;26.41;48.00
50125;BME280;36023;48.670;6.184;2022-07-23T05:59:35;99165.69;;;26.40;48.16
50125;BME280;36023;48.670;6.184;2022-07-23T06:02:01;99171.00;;;26.40;47.98
50125;BME280;36023;48.670;6.184;2022-07-23T06:04:26;99161.44;;;26.37;48.00
50125;BME280;36023;48.670;6.184;2022-07-23T06:07:10;99167.84;;;26.35;47.96
50125;BME280;36023;48.670;6.184;2022-07-23T06:09:37;99165.31;;;26.33;48.33
50125;BME280;36023;48.670;6.184;2022-07-23T06:12:03;99166.16;;;26.34;47.97
50125;BME280;36023;48.670;6.184;2022-07-23T06:14:30;99168.25;;;26.30;48.18
50125;BME280;36023;48.670;6.184;2022-07-23T06:16:58;99166.66;;;26.28;48.37
50125;BME280;36023;48.670;6.184;2022-07-23T06:19:26;99163.03;;;26.29;48.36
50125;BME280;36023;48.670;6.184;2022-07-23T06:21:52;99161.81;;;26.33;48.38
50125;BME280;36023;48.670;6.184;2022-07-23T06:24:18;99160.28;;;26.30;48.35
50125;BME280;36023;48.670;6.184;2022-07-23T06:26:44;99159.69;;;26.27;48.33
50125;BME280;36023;48.670;6.184;2022-07-23T06:29:10;99162.19;;;26.28;48.31
50125;BME280;36023;48.670;6.184;2022-07-23T06:31:36;99164.72;;;26.30;48.42
50125;BME280;36023;48.670;6.184;2022-07-23T06:34:01;99168.25;;;26.30;48.42
50125;BME280;36023;48.670;6.184;2022-07-23T06:36:27;99164.72;;;26.30;48.36
50125;BME280;36023;48.670;6.184;2022-07-23T06:38:53;99169.94;;;26.31;48.49
50125;BME280;36023;48.670;6.184;2022-07-23T06:41:19;99168.94;;;26.32;48.54
50125;BME280;36023;48.670;6.184;2022-07-23T06:43:44;99169.78;;;26.33;48.33
50125;BME280;36023;48.670;6.184;2022-07-23T06:46:11;99170.78;;;26.32;48.41
50125;BME280;36023;48.670;6.184;2022-07-23T06:48:38;99175.09;;;26.33;48.42
50125;BME280;36023;48.670;6.184;2022-07-23T06:51:04;99172.44;;;26.33;48.57
50125;BME280;36023;48.670;6.184;2022-07-23T06:53:30;99176.50;;;26.37;48.67
50125;BME280;36023;48.670;6.184;2022-07-23T06:55:55;99173.53;;;26.42;48.53
50125;BME280;36023;48.670;6.184;2022-07-23T06:58:21;99170.50;;;26.46;48.38
50125;BME280;36023;48.670;6.184;2022-07-23T07:00:47;99181.56;;;26.51;48.33
50125;BME280;36023;48.670;6.184;2022-07-23T07:03:12;99166.31;;;26.53;48.25
50125;BME280;36023;48.670;6.184;2022-07-23T07:05:38;99169.72;;;26.55;48.20
50125;BME280;36023;48.670;6.184;2022-07-23T07:08:07;99167.91;;;26.56;48.05
50125;BME280;36023;48.670;6.184;2022-07-23T07:10:32;99179.09;;;26.59;48.15
50125;BME280;36023;48.670;6.184;2022-07-23T07:12:58;99179.94;;;26.60;47.93
50125;BME280;36023;48.670;6.184;2022-07-23T07:15:24;99184.25;;;26.61;47.76
50125;BME280;36023;48.670;6.184;2022-07-23T07:17:51;99179.69;;;26.63;47.67
50125;BME280;36023;48.670;6.184;2022-07-23T07:20:17;99183.19;;;26.63;47.55
50125;BME280;36023;48.670;6.184;2022-07-23T07:22:42;99191.84;;;26.65;47.48
50125;BME280;36023;48.670;6.184;2022-07-23T07:25:08;99186.53;;;26.65;47.37
50125;BME280;36023;48.670;6.184;2022-07-23T07:27:34;99192.56;;;26.67;47.26
50125;BME280;36023;48.670;6.184;2022-07-23T07:30:00;99197.88;;;26.67;47.11
50125;BME280;36023;48.670;6.184;2022-07-23T07:32:26;99196.91;;;26.69;47.01
50125;BME280;36023;48.670;6.184;2022-07-23T07:34:51;99204.03;;;26.68;46.79
50125;BME280;36023;48.670;6.184;2022-07-23T07:37:17;99205.84;;;26.67;46.73
50125;BME280;36023;48.670;6.184;2022-07-23T07:39:43;99204.88;;;26.69;46.68
50125;BME280;36023;48.670;6.184;2022-07-23T07:42:08;99203.06;;;26.69;46.64
50125;BME280;36023;48.670;6.184;2022-07-23T07:44:34;99199.56;;;26.69;46.54
50125;BME280;36023;48.670;6.184;2022-07-23T07:46:59;99198.63;;;26.70;46.51
50125;BME280;36023;48.670;6.184;2022-07-23T07:49:27;99202.94;;;26.71;46.57
50125;BME280;36023;48.670;6.184;2022-07-23T07:51:53;99204.63;;;26.72;46.44
50125;BME280;36023;48.670;6.184;2022-07-23T07:54:18;99207.28;;;26.72;46.44
50125;BME280;36023;48.670;6.184;2022-07-23T07:56:44;99206.31;;;26.73;46.42
50125;BME280;36023;48.670;6.184;2022-07-23T07:59:10;99214.28;;;26.73;46.37
50125;BME280;36023;48.670;6.184;2022-07-23T08:01:36;99215.13;;;26.73;46.38
50125;BME280;36023;48.670;6.184;2022-07-23T08:04:02;99209.81;;;26.73;46.39
50125;BME280;36023;48.670;6.184;2022-07-23T08:06:28;99205.34;;;26.74;46.26
50125;BME280;36023;48.670;6.184;2022-07-23T08:08:54;99207.84;;;26.75;46.37
50125;BME280;36023;48.670;6.184;2022-07-23T08:11:19;99214.00;;;26.76;46.29
50125;BME280;36023;48.670;6.184;2022-07-23T08:13:45;99214.00;;;26.76;46.18
50125;BME280;36023;48.670;6.184;2022-07-23T08:16:11;99207.72;;;26.77;46.24
50125;BME280;36023;48.670;6.184;2022-07-23T08:18:38;99211.34;;;26.76;46.13
50125;BME280;36023;48.670;6.184;2022-07-23T08:21:04;99214.84;;;26.76;46.08
50125;BME280;36023;48.670;6.184;2022-07-23T08:23:32;99214.84;;;26.76;46.12
50125;BME280;36023;48.670;6.184;2022-07-23T08:25:58;99219.22;;;26.77;46.20
50125;BME280;36023;48.670;6.184;2022-07-23T08:28:25;99220.06;;;26.78;45.95
50125;BME280;36023;48.670;6.184;2022-07-23T08:30:51;99228.88;;;26.78;45.88
50125;BME280;36023;48.670;6.184;2022-07-23T08:33:20;99220.06;;;26.78;45.87
50125;BME280;36023;48.670;6.184;2022-07-23T08:35:50;99226.22;;;26.78;45.89
50125;BME280;36023;48.670;6.184;2022-07-23T08:38:20;99231.41;;;26.80;45.76
50125;BME280;36023;48.670;6.184;2022-07-23T08:40:49;99236.72;;;26.80;45.73
50125;BME280;36023;48.670;6.184;2022-07-23T08:43:18;99231.41;;;26.80;45.81
50125;BME280;36023;48.670;6.184;2022-07-23T08:45:46;99222.44;;;26.81;45.66
50125;BME280;36023;48.670;6.184;2022-07-23T08:48:20;99231.25;;;26.81;45.62
50125;BME280;36023;48.670;6.184;2022-07-23T08:50:49;99228.59;;;26.81;45.77
50125;BME280;36023;48.670;6.184;2022-07-23T08:53:17;99221.47;;;26.82;45.30
50125;BME280;36023;48.670;6.184;2022-07-23T08:55:44;99226.78;;;26.82;45.49
50125;BME280;36023;48.670;6.184;2022-07-23T08:58:11;99231.13;;;26.83;45.29
50125;BME280;36023;48.670;6.184;2022-07-23T09:00:37;99228.47;;;26.83;45.50
50125;BME280;36023;48.670;6.184;2022-07-23T09:03:03;99231.97;;;26.83;45.44
50125;BME280;36023;48.670;6.184;2022-07-23T09:05:29;99234.53;;;26.85;45.47
50125;BME280;36023;48.670;6.184;2022-07-23T09:10:42;99235.34;;;26.85;45.52
50125;BME280;36023;48.670;6.184;2022-07-23T09:16:00;99235.34;;;26.85;45.34
50125;BME280;36023;48.670;6.184;2022-07-23T09:21:18;99227.25;;;26.87;45.38
50125;BME280;36023;48.670;6.184;2022-07-23T09:23:53;99224.59;;;26.87;45.15
50125;BME280;36023;48.670;6.184;2022-07-23T09:26:44;99226.13;;;26.89;45.00
50125;BME280;36023;48.670;6.184;2022-07-23T09:29:17;99224.06;;;26.93;44.81
50125;BME280;36023;48.670;6.184;2022-07-23T09:31:47;99231.78;;;26.96;44.53
50125;BME280;36023;48.670;6.184;2022-07-23T09:34:16;99231.50;;;26.99;44.54
50125;BME280;36023;48.670;6.184;2022-07-23T09:36:42;99221.59;;;27.01;44.54
50125;BME280;36023;48.670;6.184;2022-07-23T09:39:09;99224.13;;;27.03;44.35
50125;BME280;36023;48.670;6.184;2022-07-23T09:41:53;99234.66;;;27.04;44.26
50125;BME280;36023;48.670;6.184;2022-07-23T09:44:20;99227.38;;;27.06;44.36
50125;BME280;36023;48.670;6.184;2022-07-23T09:46:50;99238.00;;;27.06;44.13
50125;BME280;36023;48.670;6.184;2022-07-23T09:49:19;99225.47;;;27.08;44.20
50125;BME280;36023;48.670;6.184;2022-07-23T09:51:46;99236.78;;;27.10;44.21
50125;BME280;36023;48.670;6.184;2022-07-23T09:54:26;99230.50;;;27.11;44.11
50125;BME280;36023;48.670;6.184;2022-07-23T09:56:53;99228.53;;;27.13;44.16
50125;BME280;36023;48.670;6.184;2022-07-23T09:59:23;99229.38;;;27.14;44.33
50125;BME280;36023;48.670;6.184;2022-07-23T10:01:52;99232.88;;;27.14;44.05
50125;BME280;36023;48.670;6.184;2022-07-23T10:04:21;99228.41;;;27.15;44.21
50125;BME280;36023;48.670;6.184;2022-07-23T10:07:07;99229.25;;;27.15;43.91
50125;BME280;36023;48.670;6.184;2022-07-23T10:09:56;99234.56;;;27.15;44.26
50125;BME280;36023;48.670;6.184;2022-07-23T10:12:46;99236.28;;;27.16;44.31
50125;BME280;36023;48.670;6.184;2022-07-23T10:15:20;99240.59;;;27.17;44.12
50125;BME280;36023;48.670;6.184;2022-07-23T10:17:48;99237.09;;;27.17;44.15
50125;BME280;36023;48.670;6.184;2022-07-23T10:20:14;99242.44;;;27.17;44.22
50125;BME280;36023;48.670;6.184;2022-07-23T10:23:13;99237.09;;;27.17;44.11
50125;BME280;36023;48.670;6.184;2022-07-23T10:26:03;99242.28;;;27.18;44.20
50125;BME280;36023;48.670;6.184;2022-07-23T10:31:18;99242.28;;;27.18;44.15
50125;BME280;36023;48.670;6.184;2022-07-23T10:34:12;99243.13;;;27.19;44.18
50125;BME280;36023;48.670;6.184;2022-07-23T10:36:51;99243.28;;;27.17;44.11
50125;BME280;36023;48.670;6.184;2022-07-23T10:39:31;99243.28;;;27.17;44.19
50125;BME280;36023;48.670;6.184;2022-07-23T10:42:14;99245.94;;;27.17;44.33
50125;BME280;36023;48.670;6.184;2022-07-23T10:44:43;99246.91;;;27.16;44.19
50125;BME280;36023;48.670;6.184;2022-07-23T10:47:12;99243.28;;;27.17;44.21
50125;BME280;36023;48.670;6.184;2022-07-23T10:49:48;99239.78;;;27.17;44.31
50125;BME280;36023;48.670;6.184;2022-07-23T10:54:42;99237.94;;;27.17;44.34
50125;BME280;36023;48.670;6.184;2022-07-23T10:57:12;99229.97;;;27.17;44.20
50125;BME280;36023;48.670;6.184;2022-07-23T11:02:28;99238.94;;;27.16;44.36
50125;BME280;36023;48.670;6.184;2022-07-23T11:04:59;99234.31;;;27.18;44.42
50125;BME280;36023;48.670;6.184;2022-07-23T11:07:25;99240.59;;;27.17;44.57
50125;BME280;36023;48.670;6.184;2022-07-23T11:09:52;99244.09;;;27.18;44.37
50125;BME280;36023;48.670;6.184;2022-07-23T11:15:12;99235.28;;;27.17;44.54
50125;BME280;36023;48.670;6.184;2022-07-23T11:17:39;99239.78;;;27.17;44.63
50125;BME280;36023;48.670;6.184;2022-07-23T11:20:24;99234.56;;;27.15;44.67
50125;BME280;36023;48.670;6.184;2022-07-23T11:22:54;99236.38;;;27.15;44.69
50125;BME280;36023;48.670;6.184;2022-07-23T11:27:49;99237.34;;;27.14;44.60
50125;BME280;36023;48.670;6.184;2022-07-23T11:35:39;99255.25;;;27.12;44.70
50125;BME280;36023;48.670;6.184;2022-07-23T11:38:16;99257.91;;;27.12;44.91
50125;BME280;36023;48.670;6.184;2022-07-23T11:40:53;99253.59;;;27.11;44.51
50125;BME280;36023;48.670;6.184;2022-07-23T11:43:20;99254.69;;;27.08;44.29
50125;BME280;36023;48.670;6.184;2022-07-23T11:45:53;99245.00;;;27.07;44.62
50125;BME280;36023;48.670;6.184;2022-07-23T11:48:26;99247.56;;;27.09;44.68
50125;BME280;36023;48.670;6.184;2022-07-23T11:50:53;99245.75;;;27.09;44.60
50125;BME280;36023;48.670;6.184;2022-07-23T11:53:27;99243.94;;;27.10;44.42
50125;BME280;36023;48.670;6.184;2022-07-23T11:55:53;99238.59;;;27.10;44.61
50125;BME280;36023;48.670;6.184;2022-07-23T11:58:20;99239.44;;;27.10;44.62
50125;BME280;36023;48.670;6.184;2022-07-23T12:00:47;99238.47;;;27.11;44.54
50125;BME280;36023;48.670;6.184;2022-07-23T12:03:12;99237.63;;;27.11;44.80
50125;BME280;36023;48.670;6.184;2022-07-23T12:05:38;99245.59;;;27.11;44.49
50125;BME280;36023;48.670;6.184;2022-07-23T12:08:07;99246.44;;;27.11;44.55
50125;BME280;36023;48.670;6.184;2022-07-23T12:10:36;99238.47;;;27.11;44.63
50125;BME280;36023;48.670;6.184;2022-07-23T12:13:09;99234.00;;;27.12;44.65
50125;BME280;36023;48.670;6.184;2022-07-23T12:15:41;99242.81;;;27.12;44.63
50125;BME280;36023;48.670;6.184;2022-07-23T12:18:10;99230.50;;;27.11;44.58
50125;BME280;36023;48.670;6.184;2022-07-23T12:20:42;99227.69;;;27.13;44.61
50125;BME280;36023;48.670;6.184;2022-07-23T12:23:09;99218.88;;;27.12;44.71
50125;BME280;36023;48.670;6.184;2022-07-23T12:25:40;99229.50;;;27.12;44.72
50125;BME280;36023;48.670;6.184;2022-07-23T12:30:39;99219.72;;;27.13;44.63
50125;BME280;36023;48.670;6.184;2022-07-23T12:33:06;99225.88;;;27.13;44.63
50125;BME280;36023;48.670;6.184;2022-07-23T12:35:40;99230.22;;;27.14;44.64
50125;BME280;36023;48.670;6.184;2022-07-23T12:38:15;99228.53;;;27.13;44.59
50125;BME280;36023;48.670;6.184;2022-07-23T12:40:54;99233.84;;;27.13;44.54
50125;BME280;36023;48.670;6.184;2022-07-23T12:43:26;99224.06;;;27.14;44.45
50125;BME280;36023;48.670;6.184;2022-07-23T12:48:37;99230.22;;;27.14;44.60
50125;BME280;36023;48.670;6.184;2022-07-23T12:51:07;99228.41;;;27.15;44.64
50125;BME280;36023;48.670;6.184;2022-07-23T12:53:50;99221.25;;;27.15;44.53
50125;BME280;36023;48.670;6.184;2022-07-23T12:56:20;99222.13;;;27.16;44.53
50125;BME280;36023;48.670;6.184;2022-07-23T13:01:36;99236.28;;;27.16;44.49
50125;BME280;36023;48.670;6.184;2022-07-23T13:04:08;99238.94;;;27.16;44.50
50125;BME280;36023;48.670;6.184;2022-07-23T13:06:50;99229.13;;;27.17;44.45
50125;BME280;36023;48.670;6.184;2022-07-23T13:09:22;99228.28;;;27.16;44.32
50125;BME280;36023;48.670;6.184;2022-07-23T13:11:49;99235.28;;;27.17;44.48
50125;BME280;36023;48.670;6.184;2022-07-23T13:14:17;99241.44;;;27.18;44.42
50125;BME280;36023;48.670;6.184;2022-07-23T13:16:43;99234.31;;;27.18;44.46
50125;BME280;36023;48.670;6.184;2022-07-23T13:19:11;99239.63;;;27.18;44.60
50125;BME280;36023;48.670;6.184;2022-07-23T13:21:37;99235.28;;;27.17;44.49
50125;BME280;36023;48.670;6.184;2022-07-23T13:24:03;99234.31;;;27.18;44.55
50125;BME280;36023;48.670;6.184;2022-07-23T13:26:29;99233.47;;;27.18;44.32
50125;BME280;36023;48.670;6.184;2022-07-23T13:28:55;99233.34;;;27.19;44.47
50125;BME280;36023;48.670;6.184;2022-07-23T13:31:21;99239.50;;;27.20;44.30
50125;BME280;36023;48.670;6.184;2022-07-23T13:33:47;99246.63;;;27.19;44.35
50125;BME280;36023;48.670;6.184;2022-07-23T13:36:13;99241.31;;;27.19;44.24
50125;BME280;36023;48.670;6.184;2022-07-23T13:38:39;99242.16;;;27.20;44.39
50125;BME280;36023;48.670;6.184;2022-07-23T13:41:05;99240.34;;;27.20;44.29